Terminal Aerodrome Forecast
Issued by NWS

Current Version | Previous Version | Graphics & Text | Print | Product List | Glossary On
Versions: 1 2 3 4 5 6 7 8 9 10 11 12 13 14 15 16 17 18 19 20 21 22 23 24 25
000
FTUS41 KPBZ 010300 AAA
TAFHLG
TAF AMD
KHLG 010336Z 0104/0124 20005KT 3SM BR OVC007
     FM010700 20005KT 1SM BR OVC003
     FM011400 20004KT 5SM BR BKN010
     FM011600 23005KT P6SM BKN025
     FM011800 23008KT P6SM SCT035=

USA.gov is the U.S. government's official web portal to all federal, state and local government web resources and services.